createdAt,value
2022-10-10T00:00:48.761Z,19.90
2022-10-10T00:03:16.735Z,19.90
2022-10-10T00:05:44.679Z,19.90
2022-10-10T00:08:12.591Z,20.00
2022-10-10T00:10:41.810Z,20.20
2022-10-10T00:13:09.665Z,20.30
2022-10-10T00:15:37.534Z,20.60
2022-10-10T00:18:05.706Z,20.80
2022-10-10T00:20:33.569Z,21.00
2022-10-10T00:23:01.429Z,21.20
2022-10-10T00:25:29.323Z,21.30
2022-10-10T00:28:02.018Z,21.40
2022-10-10T00:30:29.861Z,21.40
2022-10-10T00:32:59.265Z,21.40
2022-10-10T00:35:27.143Z,21.30
2022-10-10T00:37:55.007Z,21.20
2022-10-10T00:40:22.971Z,21.00
2022-10-10T00:42:51.108Z,20.90
2022-10-10T00:45:38.295Z,20.90
2022-10-10T00:48:07.890Z,20.70
2022-10-10T00:50:38.133Z,20.60
2022-10-10T00:53:06.708Z,20.50
2022-10-10T00:55:34.636Z,20.50
2022-10-10T00:58:02.546Z,20.50
2022-10-10T01:00:30.402Z,20.60
2022-10-10T01:02:59.647Z,20.70
2022-10-10T01:05:27.498Z,20.80
2022-10-10T01:07:55.345Z,20.80
2022-10-10T01:10:24.748Z,20.70
2022-10-10T01:13:01.499Z,20.60
2022-10-10T01:15:33.521Z,20.50
2022-10-10T01:18:04.851Z,20.40
2022-10-10T01:20:45.842Z,20.40
2022-10-10T01:23:26.918Z,20.30
2022-10-10T01:26:01.365Z,20.30
2022-10-10T01:28:37.778Z,20.20
2022-10-10T01:31:06.278Z,20.20
2022-10-10T01:33:36.979Z,20.20
2022-10-10T01:36:06.037Z,20.30
2022-10-10T01:38:36.787Z,20.40
2022-10-10T01:41:07.311Z,20.40
2022-10-10T01:43:36.581Z,20.30
2022-10-10T01:46:10.565Z,20.30
2022-10-10T01:48:38.416Z,20.30
2022-10-10T01:51:25.730Z,20.30
2022-10-10T01:53:57.428Z,20.20
2022-10-10T01:56:29.340Z,20.20
2022-10-10T01:59:10.929Z,20.20
2022-10-10T02:01:46.366Z,20.10
2022-10-10T02:04:16.709Z,20.10
2022-10-10T02:06:47.595Z,20.10
2022-10-10T02:09:17.289Z,20.00
2022-10-10T02:11:46.971Z,20.00
2022-10-10T02:14:18.533Z,20.00
2022-10-10T02:16:47.640Z,20.00
2022-10-10T02:19:18.706Z,20.00
2022-10-10T02:21:46.751Z,20.00
2022-10-10T02:24:14.749Z,20.00
2022-10-10T02:26:44.417Z,20.00
2022-10-10T02:29:13.693Z,20.10
2022-10-10T02:31:44.652Z,20.30
2022-10-10T02:34:14.076Z,20.40
2022-10-10T02:36:42.059Z,20.50
2022-10-10T02:39:09.932Z,20.50
2022-10-10T02:41:37.828Z,20.40
2022-10-10T02:44:05.671Z,20.30
2022-10-10T02:46:33.547Z,20.20
2022-10-10T02:49:03.745Z,20.20
2022-10-10T02:51:31.660Z,20.20
2022-10-10T02:53:59.584Z,20.10
2022-10-10T02:56:27.434Z,20.10
2022-10-10T02:58:55.350Z,20.00
2022-10-10T03:01:23.256Z,20.00
2022-10-10T03:03:51.219Z,20.00
2022-10-10T03:06:20.489Z,20.00
2022-10-10T03:08:48.351Z,20.00
2022-10-10T03:11:16.764Z,19.90
2022-10-10T03:13:44.633Z,20.00
2022-10-10T03:16:12.631Z,20.10
2022-10-10T03:18:40.537Z,20.20
2022-10-10T03:21:08.745Z,20.30
2022-10-10T03:23:37.943Z,20.30
2022-10-10T03:26:06.074Z,20.30
2022-10-10T03:28:34.039Z,20.30
2022-10-10T03:31:02.007Z,20.20
2022-10-10T03:33:29.885Z,20.10
2022-10-10T03:35:57.756Z,20.10
2022-10-10T03:38:25.650Z,20.10
2022-10-10T03:40:55.096Z,20.00
2022-10-10T03:43:22.949Z,20.00
2022-10-10T03:45:50.789Z,20.00
2022-10-10T03:48:18.627Z,19.90
2022-10-10T03:50:46.472Z,20.00
2022-10-10T03:53:14.328Z,20.10
2022-10-10T03:55:42.466Z,20.10
2022-10-10T03:58:12.057Z,20.10
2022-10-10T04:00:40.005Z,20.10
2022-10-10T04:03:08.158Z,20.10
2022-10-10T04:05:36.192Z,20.10
2022-10-10T04:08:04.093Z,20.00
2022-10-10T04:10:31.986Z,20.00
2022-10-10T04:12:59.855Z,20.00
2022-10-10T04:15:29.059Z,19.90
2022-10-10T04:17:56.910Z,19.90
2022-10-10T04:20:24.770Z,19.90
2022-10-10T04:22:53.090Z,19.90
2022-10-10T04:25:21.199Z,19.90
2022-10-10T04:27:49.056Z,19.80
2022-10-10T04:30:16.994Z,19.90
2022-10-10T04:32:46.169Z,20.00
2022-10-10T04:35:14.029Z,20.10
2022-10-10T04:37:41.883Z,20.10
2022-10-10T04:40:10.980Z,20.10
2022-10-10T04:42:39.025Z,20.10
2022-10-10T04:45:07.901Z,20.10
2022-10-10T04:47:35.813Z,20.10
2022-10-10T04:50:05.534Z,20.10
2022-10-10T04:52:37.475Z,20.00
2022-10-10T04:55:05.931Z,20.00
2022-10-10T04:57:33.791Z,20.00
2022-10-10T05:00:01.656Z,20.00
2022-10-10T05:02:29.503Z,19.90
2022-10-10T05:04:57.342Z,19.90
2022-10-10T05:07:26.592Z,19.90
2022-10-10T05:09:54.445Z,19.90
2022-10-10T05:12:22.311Z,20.00
2022-10-10T05:14:50.160Z,20.10
2022-10-10T05:17:18.060Z,20.20
2022-10-10T05:19:45.952Z,20.20
2022-10-10T05:22:13.834Z,20.10
2022-10-10T05:24:43.145Z,20.10
2022-10-10T05:27:10.998Z,20.10
2022-10-10T05:29:38.849Z,20.10
2022-10-10T05:32:10.282Z,20.00
2022-10-10T05:34:38.475Z,20.00
2022-10-10T05:37:06.360Z,20.00
2022-10-10T05:39:34.209Z,20.00
2022-10-10T05:42:03.461Z,19.90
2022-10-10T05:44:31.301Z,19.90
2022-10-10T05:46:59.168Z,19.90
2022-10-10T05:49:27.013Z,19.90
2022-10-10T05:51:54.858Z,19.90
2022-10-10T05:54:22.808Z,20.00
2022-10-10T05:56:50.702Z,20.10
2022-10-10T05:59:19.906Z,20.10
2022-10-10T06:01:47.752Z,20.10
2022-10-10T06:04:15.599Z,20.10
2022-10-10T06:06:43.488Z,20.10
2022-10-10T06:09:11.325Z,20.10
2022-10-10T06:11:39.186Z,20.00
2022-10-10T06:14:07.031Z,20.00
2022-10-10T06:16:36.882Z,20.00
2022-10-10T06:19:04.742Z,19.90
2022-10-10T06:21:32.617Z,19.90
2022-10-10T06:24:00.526Z,19.90
2022-10-10T06:26:28.410Z,19.90
2022-10-10T06:28:56.306Z,19.90
2022-10-10T06:31:24.157Z,19.90
2022-10-10T06:33:53.345Z,20.00
2022-10-10T06:36:21.282Z,20.10
2022-10-10T06:38:49.167Z,20.10
2022-10-10T06:41:17.015Z,20.10
2022-10-10T06:43:44.900Z,20.00
2022-10-10T06:46:13.281Z,20.10
2022-10-10T06:48:41.146Z,20.00
2022-10-10T06:51:12.159Z,20.00
2022-10-10T06:53:40.054Z,20.00
2022-10-10T06:56:07.904Z,19.90
2022-10-10T06:58:35.796Z,20.00
2022-10-10T07:01:04.711Z,20.00
2022-10-10T07:03:32.623Z,19.90
2022-10-10T07:06:01.286Z,19.90
2022-10-10T07:08:32.741Z,19.90
2022-10-10T07:11:00.606Z,19.90
2022-10-10T07:13:28.497Z,20.00
2022-10-10T07:15:56.406Z,20.20
2022-10-10T07:18:24.290Z,20.20
2022-10-10T07:20:52.183Z,20.30
2022-10-10T07:23:20.278Z,20.20
2022-10-10T07:25:49.480Z,20.20
2022-10-10T07:28:17.399Z,20.10
2022-10-10T07:30:46.299Z,20.10
2022-10-10T07:33:14.346Z,20.00
2022-10-10T07:35:42.295Z,20.00
2022-10-10T07:38:11.610Z,20.00
2022-10-10T07:40:40.576Z,19.90
2022-10-10T07:43:09.889Z,19.90
2022-10-10T07:45:37.838Z,19.90
2022-10-10T07:48:06.430Z,19.90
2022-10-10T07:50:34.331Z,19.90
2022-10-10T07:53:02.204Z,19.90
2022-10-10T07:55:30.092Z,19.80
2022-10-10T07:57:59.578Z,19.80
2022-10-10T08:00:29.303Z,19.90
2022-10-10T08:02:58.453Z,20.00
2022-10-10T08:05:26.342Z,20.10
2022-10-10T08:07:54.583Z,20.20
2022-10-10T08:10:22.718Z,20.20
2022-10-10T08:12:50.629Z,20.20
2022-10-10T08:15:18.667Z,20.10
2022-10-10T08:17:47.982Z,20.10
2022-10-10T08:20:16.055Z,20.00
2022-10-10T08:22:43.950Z,20.00
2022-10-10T08:25:11.835Z,20.00
2022-10-10T08:27:39.717Z,19.90
2022-10-10T08:30:08.217Z,19.90
2022-10-10T08:32:36.076Z,19.90
2022-10-10T08:35:05.995Z,19.90
2022-10-10T08:37:37.226Z,19.90
2022-10-10T08:40:06.377Z,19.90
2022-10-10T08:42:35.898Z,19.80
2022-10-10T08:45:04.861Z,19.80
2022-10-10T08:47:38.001Z,19.80
2022-10-10T08:50:12.419Z,19.90
2022-10-10T08:52:42.449Z,20.00
2022-10-10T08:55:15.933Z,20.00
2022-10-10T08:57:49.496Z,20.00
2022-10-10T09:00:18.759Z,20.00
2022-10-10T09:02:54.036Z,20.00
2022-10-10T09:05:30.797Z,20.00
2022-10-10T09:08:12.726Z,19.90
2022-10-10T09:10:44.412Z,19.90
2022-10-10T09:13:17.636Z,19.90
2022-10-10T09:15:50.658Z,19.90
2022-10-10T09:18:22.459Z,19.90
2022-10-10T09:20:56.251Z,19.90
2022-10-10T09:23:26.359Z,19.80
2022-10-10T09:25:55.965Z,19.80
2022-10-10T09:28:32.863Z,19.90
2022-10-10T09:31:01.307Z,20.00
2022-10-10T09:33:30.764Z,20.10
2022-10-10T09:36:00.158Z,20.20
2022-10-10T09:38:33.317Z,20.20
2022-10-10T09:41:02.765Z,20.20
2022-10-10T09:43:32.201Z,20.10
2022-10-10T09:46:00.066Z,20.00
2022-10-10T09:48:30.104Z,20.00
2022-10-10T09:50:59.918Z,20.00
2022-10-10T09:53:28.159Z,20.00
2022-10-10T09:55:56.039Z,19.90
2022-10-10T09:58:29.097Z,19.90
2022-10-10T10:00:57.347Z,19.90
2022-10-10T10:03:25.409Z,19.90
2022-10-10T10:05:57.352Z,19.90
2022-10-10T10:08:28.762Z,19.80
2022-10-10T10:10:59.766Z,19.80
2022-10-10T10:13:29.755Z,19.80
2022-10-10T10:16:08.187Z,19.80
2022-10-10T10:18:40.729Z,19.90
2022-10-10T10:21:22.283Z,20.00
2022-10-10T10:23:56.744Z,20.20
2022-10-10T10:26:27.325Z,20.20
2022-10-10T10:28:55.946Z,20.20
2022-10-10T10:31:32.016Z,20.10
2022-10-10T10:34:12.562Z,20.10
2022-10-10T10:36:46.112Z,20.00
2022-10-10T10:39:23.930Z,20.00
2022-10-10T10:41:54.306Z,20.00
2022-10-10T10:44:30.156Z,19.90
2022-10-10T10:47:04.668Z,19.90
2022-10-10T10:49:36.918Z,19.90
2022-10-10T10:52:12.042Z,19.90
2022-10-10T10:54:51.146Z,19.90
2022-10-10T10:57:37.153Z,19.90
2022-10-10T11:00:16.922Z,19.80
2022-10-10T11:03:35.120Z,19.80
2022-10-10T11:06:02.224Z,19.90
2022-10-10T11:08:37.809Z,20.00
2022-10-10T11:11:19.238Z,20.20
2022-10-10T11:13:51.495Z,20.20
2022-10-10T11:16:47.295Z,20.20
2022-10-10T11:19:17.215Z,20.20
2022-10-10T11:21:47.018Z,20.10
2022-10-10T11:24:16.716Z,20.00
2022-10-10T11:26:47.888Z,20.00
2022-10-10T11:29:17.063Z,20.00
2022-10-10T11:31:46.473Z,20.00
2022-10-10T11:34:16.616Z,20.00
2022-10-10T11:36:45.214Z,19.90
2022-10-10T11:39:15.749Z,19.90
2022-10-10T11:41:47.718Z,19.90
2022-10-10T11:44:18.322Z,19.90
2022-10-10T11:46:47.984Z,19.90
2022-10-10T11:49:18.760Z,19.80
2022-10-10T11:52:15.129Z,19.90
2022-10-10T11:54:49.041Z,19.90
2022-10-10T11:57:19.931Z,20.10
2022-10-10T11:59:48.953Z,20.20
2022-10-10T12:02:19.295Z,20.20
2022-10-10T12:04:47.245Z,20.20
2022-10-10T12:07:16.235Z,20.20
2022-10-10T12:09:45.566Z,20.10
2022-10-10T12:12:14.542Z,20.10
2022-10-10T12:14:45.375Z,20.00
2022-10-10T12:17:19.739Z,20.00
2022-10-10T12:19:48.561Z,20.00
2022-10-10T12:22:23.680Z,20.00
2022-10-10T12:25:09.453Z,19.90
2022-10-10T12:27:44.432Z,19.90
2022-10-10T12:30:25.862Z,19.90
2022-10-10T12:32:57.402Z,19.90
2022-10-10T12:35:36.796Z,19.90
2022-10-10T12:38:10.853Z,19.90
2022-10-10T12:41:05.820Z,19.90
2022-10-10T12:43:51.244Z,20.00
2022-10-10T12:46:25.248Z,20.00
2022-10-10T12:49:14.497Z,20.20
2022-10-10T12:51:42.398Z,20.20
2022-10-10T12:54:10.259Z,20.20
2022-10-10T12:56:40.363Z,20.20
2022-10-10T12:59:14.911Z,20.20
2022-10-10T13:01:46.424Z,20.10
2022-10-10T13:04:17.127Z,20.10
2022-10-10T13:06:45.211Z,20.00
2022-10-10T13:09:17.827Z,20.00
2022-10-10T13:11:53.587Z,20.00
2022-10-10T13:14:21.476Z,20.00
2022-10-10T13:16:50.682Z,20.00
2022-10-10T13:19:20.886Z,20.00
2022-10-10T13:21:49.189Z,20.00
2022-10-10T13:24:18.755Z,19.90
2022-10-10T13:26:47.921Z,19.90
2022-10-10T13:29:25.629Z,19.90
2022-10-10T13:31:56.207Z,19.90
2022-10-10T13:34:27.214Z,19.90
2022-10-10T13:36:56.867Z,19.90
2022-10-10T13:39:24.875Z,19.90
2022-10-10T13:41:52.741Z,19.90
2022-10-10T13:44:23.279Z,20.00
2022-10-10T13:46:51.253Z,20.10
2022-10-10T13:49:23.964Z,20.20
2022-10-10T13:52:01.610Z,20.30
2022-10-10T13:54:39.872Z,20.30
2022-10-10T13:57:17.999Z,20.20
2022-10-10T13:59:46.335Z,20.20
2022-10-10T14:02:15.653Z,20.10
2022-10-10T14:04:49.135Z,20.10
2022-10-10T14:07:19.673Z,20.10
2022-10-10T14:09:53.587Z,20.00
2022-10-10T14:12:25.441Z,20.00
2022-10-10T14:14:54.208Z,20.00
2022-10-10T14:17:22.052Z,20.00
2022-10-10T14:19:51.255Z,20.00
2022-10-10T14:22:19.297Z,19.90
2022-10-10T14:24:47.268Z,19.90
2022-10-10T14:27:23.497Z,19.90
2022-10-10T14:29:51.394Z,19.90
2022-10-10T14:32:19.730Z,19.90
2022-10-10T14:34:47.640Z,20.00
2022-10-10T14:37:19.669Z,20.10
2022-10-10T14:39:48.053Z,20.20
2022-10-10T14:42:16.753Z,20.20
2022-10-10T14:44:44.718Z,20.20
2022-10-10T14:47:16.334Z,20.20
2022-10-10T14:49:44.390Z,20.10
2022-10-10T14:52:12.273Z,20.00
2022-10-10T14:54:41.514Z,20.00
2022-10-10T14:57:10.826Z,20.00
2022-10-10T14:59:48.451Z,20.00
2022-10-10T15:02:19.006Z,20.00
2022-10-10T15:04:46.878Z,19.90
2022-10-10T15:07:15.501Z,19.90
2022-10-10T15:10:09.770Z,19.90
2022-10-10T15:12:33.149Z,19.90
2022-10-10T15:15:01.047Z,19.90
2022-10-10T15:17:30.399Z,19.90
2022-10-10T15:19:58.279Z,19.90
2022-10-10T15:22:27.390Z,20.00
2022-10-10T15:24:56.655Z,20.10
2022-10-10T15:27:24.658Z,20.20
2022-10-10T15:29:52.511Z,20.30
2022-10-10T15:32:20.423Z,20.30
2022-10-10T15:34:54.373Z,20.20
2022-10-10T15:37:28.286Z,20.20
2022-10-10T15:39:57.749Z,20.10
2022-10-10T15:42:25.623Z,20.10
2022-10-10T15:44:53.460Z,20.10
2022-10-10T15:47:21.634Z,20.00
2022-10-10T15:49:49.607Z,20.00
2022-10-10T15:52:17.740Z,20.00
2022-10-10T15:54:48.471Z,20.00
2022-10-10T15:59:17.787Z,20.00
2022-10-10T16:00:07.569Z,20.10
2022-10-10T16:02:40.067Z,20.10
2022-10-10T16:05:09.986Z,20.20
2022-10-10T16:07:46.611Z,20.10
2022-10-10T16:10:16.274Z,20.10
2022-10-10T16:12:45.518Z,20.10
2022-10-10T16:15:13.647Z,20.10
2022-10-10T16:17:41.501Z,20.10
2022-10-10T16:20:10.377Z,20.00
2022-10-10T16:22:38.229Z,20.00
2022-10-10T16:25:23.110Z,20.00
2022-10-10T16:27:52.970Z,20.00
2022-10-10T16:30:21.716Z,20.00
2022-10-10T16:32:49.725Z,20.00
2022-10-10T16:35:17.656Z,20.00
2022-10-10T16:37:45.534Z,20.00
2022-10-10T16:40:13.733Z,20.10
2022-10-10T16:42:41.591Z,20.20
2022-10-10T16:45:11.831Z,20.30
2022-10-10T16:47:39.693Z,20.30
2022-10-10T16:50:08.592Z,20.20
2022-10-10T16:52:38.219Z,20.20
2022-10-10T16:55:07.610Z,20.10
2022-10-10T16:57:35.728Z,20.10
2022-10-10T17:00:03.826Z,20.10
2022-10-10T17:02:33.061Z,20.00
2022-10-10T17:05:00.953Z,20.00
2022-10-10T17:07:28.830Z,20.00
2022-10-10T17:09:56.798Z,20.00
2022-10-10T17:12:25.012Z,20.00
2022-10-10T17:14:52.919Z,20.10
2022-10-10T17:17:20.806Z,20.20
2022-10-10T17:19:50.083Z,20.20
2022-10-10T17:22:17.936Z,20.20
2022-10-10T17:24:45.881Z,20.20
2022-10-10T17:27:14.121Z,20.20
2022-10-10T17:29:42.214Z,20.10
2022-10-10T17:32:10.103Z,20.10
2022-10-10T17:34:37.982Z,20.10
2022-10-10T17:37:07.226Z,20.10
2022-10-10T17:39:35.091Z,20.10
2022-10-10T17:42:04.510Z,20.00
2022-10-10T17:44:37.325Z,20.00
2022-10-10T17:47:07.107Z,20.00
2022-10-10T17:49:35.100Z,20.00
2022-10-10T17:52:03.123Z,20.00
2022-10-10T17:54:32.325Z,20.20
2022-10-10T17:57:00.211Z,20.30
2022-10-10T17:59:28.174Z,20.40
2022-10-10T18:01:56.112Z,20.40
2022-10-10T18:04:24.150Z,20.30
2022-10-10T18:06:52.017Z,20.30
2022-10-10T18:09:20.042Z,20.20
2022-10-10T18:11:49.230Z,20.20
2022-10-10T18:14:17.243Z,20.20
2022-10-10T18:16:45.356Z,20.10
2022-10-10T18:19:13.219Z,20.10
2022-10-10T18:21:41.069Z,20.10
2022-10-10T18:24:09.727Z,20.00
2022-10-10T18:26:37.600Z,20.10
2022-10-10T18:29:06.792Z,20.00
2022-10-10T18:31:35.364Z,20.00
2022-10-10T18:34:03.577Z,20.00
2022-10-10T18:36:32.354Z,20.00
2022-10-10T18:39:00.399Z,20.00
2022-10-10T18:41:33.884Z,20.10
2022-10-10T18:44:02.174Z,20.30
2022-10-10T18:46:31.551Z,20.40
2022-10-10T18:48:59.614Z,20.40
2022-10-10T18:51:29.486Z,20.40
2022-10-10T18:53:58.469Z,20.30
2022-10-10T18:56:26.332Z,20.30
2022-10-10T18:58:55.890Z,20.20
2022-10-10T19:01:25.154Z,20.20
2022-10-10T19:03:55.021Z,20.20
2022-10-10T19:06:23.250Z,20.10
2022-10-10T19:08:51.573Z,20.10
2022-10-10T19:11:20.428Z,20.10
2022-10-10T19:13:48.314Z,20.10
2022-10-10T19:16:16.394Z,20.10
2022-10-10T19:18:44.312Z,20.00
2022-10-10T19:21:13.598Z,20.00
2022-10-10T19:23:41.495Z,20.00
2022-10-10T19:26:10.535Z,20.00
2022-10-10T19:28:38.612Z,20.10
2022-10-10T19:31:07.921Z,20.20
2022-10-10T19:33:35.882Z,20.40
2022-10-10T19:36:04.712Z,20.40
2022-10-10T19:38:34.261Z,20.40
2022-10-10T19:41:02.684Z,20.30
2022-10-10T19:43:30.718Z,20.30
2022-10-10T19:45:58.594Z,20.20
2022-10-10T19:48:26.543Z,20.20
2022-10-10T19:50:54.567Z,20.20
2022-10-10T19:53:22.470Z,20.20
2022-10-10T19:55:58.938Z,20.10
2022-10-10T19:58:26.825Z,20.10
2022-10-10T20:00:55.069Z,20.10
2022-10-10T20:03:23.076Z,20.10
2022-10-10T20:05:51.010Z,20.10
2022-10-10T20:08:20.062Z,20.10
2022-10-10T20:10:47.903Z,20.00
2022-10-10T20:13:17.169Z,20.00
2022-10-10T20:15:45.659Z,20.10
2022-10-10T20:18:13.767Z,20.20
2022-10-10T20:20:41.982Z,20.30
2022-10-10T20:23:09.889Z,20.30
2022-10-10T20:25:38.959Z,20.30
2022-10-10T20:28:06.982Z,20.20
2022-10-10T20:30:39.250Z,20.20
2022-10-10T20:33:07.150Z,20.20
2022-10-10T20:35:35.053Z,20.20
2022-10-10T20:38:03.095Z,20.10
2022-10-10T20:40:31.292Z,20.10
2022-10-10T20:42:59.135Z,20.10
2022-10-10T20:45:27.043Z,20.10
2022-10-10T20:47:56.248Z,20.10
2022-10-10T20:50:24.098Z,20.00
2022-10-10T20:52:52.014Z,20.00
2022-10-10T20:55:19.877Z,20.00
2022-10-10T20:57:47.725Z,20.00
2022-10-10T21:00:16.590Z,20.10
2022-10-10T21:02:44.442Z,20.00
2022-10-10T21:05:13.699Z,20.00
2022-10-10T21:07:41.599Z,20.00
2022-10-10T21:10:10.295Z,20.10
2022-10-10T21:12:38.196Z,20.20
2022-10-10T21:15:06.927Z,20.40
2022-10-10T21:17:34.816Z,20.40
2022-10-10T21:20:02.713Z,20.50
2022-10-10T21:22:32.791Z,20.40
2022-10-10T21:25:00.732Z,20.40
2022-10-10T21:27:28.722Z,20.30
2022-10-10T21:29:56.764Z,20.20
2022-10-10T21:32:26.533Z,20.20
2022-10-10T21:34:56.563Z,20.20
2022-10-10T21:37:27.039Z,20.20
2022-10-10T21:39:56.472Z,20.10
2022-10-10T21:42:24.611Z,20.10
2022-10-10T21:44:52.543Z,20.10
2022-10-10T21:47:20.410Z,20.10
2022-10-10T21:49:48.276Z,20.10
2022-10-10T21:52:16.121Z,20.00
2022-10-10T21:54:43.989Z,20.00
2022-10-10T21:57:13.186Z,20.00
2022-10-10T21:59:41.022Z,20.10
2022-10-10T22:02:08.893Z,20.20
2022-10-10T22:04:36.775Z,20.40
2022-10-10T22:07:04.802Z,20.50
2022-10-10T22:09:32.665Z,20.50
2022-10-10T22:12:00.546Z,20.40
2022-10-10T22:14:29.815Z,20.30
2022-10-10T22:16:57.722Z,20.30
2022-10-10T22:19:25.609Z,20.20
2022-10-10T22:21:53.457Z,20.20
2022-10-10T22:24:21.404Z,20.20
2022-10-10T22:26:49.248Z,20.20
2022-10-10T22:29:17.126Z,20.10
2022-10-10T22:31:46.345Z,20.10
2022-10-10T22:34:14.221Z,20.10
2022-10-10T22:36:42.060Z,20.10
2022-10-10T22:39:11.032Z,20.10
2022-10-10T22:41:38.931Z,20.00
2022-10-10T22:44:07.024Z,20.00
2022-10-10T22:46:34.899Z,20.10
2022-10-10T22:49:04.330Z,20.20
2022-10-10T22:51:32.191Z,20.30
2022-10-10T22:54:00.043Z,20.40
2022-10-10T22:56:28.215Z,20.40
2022-10-10T22:58:56.227Z,20.40
2022-10-10T23:01:26.053Z,20.40
2022-10-10T23:03:55.274Z,20.30
2022-10-10T23:06:24.482Z,20.20
2022-10-10T23:08:52.350Z,20.20
2022-10-10T23:11:20.233Z,20.20
2022-10-10T23:13:48.072Z,20.20
2022-10-10T23:16:16.039Z,20.10
2022-10-10T23:18:43.929Z,20.10
2022-10-10T23:21:11.824Z,20.10
2022-10-10T23:23:41.059Z,20.20
2022-10-10T23:26:09.378Z,20.20
2022-10-10T23:28:39.195Z,20.30
2022-10-10T23:31:08.474Z,20.30
2022-10-10T23:33:37.231Z,20.20
2022-10-10T23:36:07.702Z,20.20
2022-10-10T23:38:35.884Z,20.20
2022-10-10T23:41:05.240Z,20.20
2022-10-10T23:43:33.108Z,20.20
2022-10-10T23:46:01.177Z,20.10
2022-10-10T23:48:29.322Z,20.10
2022-10-10T23:50:57.181Z,20.10
2022-10-10T23:53:25.015Z,20.10
2022-10-10T23:55:52.882Z,20.10
2022-10-10T23:58:22.131Z,20.10
